Time;durP1;ratioP1;P1;durP2;ratioP2;P2;SDS_P1;SDS_P2;PMS_P1;PMS_P2;Temp;Humidity;BMP_temperature;BMP_pressure;BME280_temperature;BME280_humidity;BME280_pressure;Samples;Min_cycle;Max_cycle;Signal;HPM_P1;HPM_P2
2022/01/12 00:00:45;;;;;;;8.00;7.20;;;4.80;99.90;;;;;;4951472;29;20334;-61
2022/01/12 00:03:13;;;;;;;6.00;5.50;;;4.90;99.90;;;;;;4952711;29;20211;-61
2022/01/12 00:05:42;;;;;;;6.80;5.88;;;4.80;99.90;;;;;;4952721;29;20621;-61
2022/01/12 00:08:10;;;;;;;6.22;5.10;;;4.80;99.90;;;;;;4942352;29;20229;-61
2022/01/12 00:10:39;;;;;;;5.30;4.80;;;4.80;99.90;;;;;;4937367;29;20596;-61
2022/01/12 00:13:07;;;;;;;5.55;5.15;;;4.70;99.90;;;;;;4956623;29;20207;-61
2022/01/12 00:15:36;;;;;;;6.05;5.45;;;4.60;99.90;;;;;;4956603;29;20638;-62
2022/01/12 00:18:04;;;;;;;5.20;4.78;;;4.50;99.90;;;;;;4956876;29;20316;-61
2022/01/12 00:20:32;;;;;;;5.53;5.13;;;4.50;99.90;;;;;;4956632;29;20254;-61
2022/01/12 00:23:00;;;;;;;4.85;4.43;;;4.50;99.90;;;;;;4956422;29;20673;-61
2022/01/12 00:25:31;;;;;;;6.50;5.90;;;4.40;99.90;;;;;;4956528;29;20665;-61
2022/01/12 00:33:32;;;;;;;5.93;5.25;;;4.50;99.90;;;;;;4956445;29;20245;-61
2022/01/12 00:36:00;;;;;;;6.85;5.55;;;4.60;99.90;;;;;;4956167;29;20257;-61
2022/01/12 00:38:30;;;;;;;5.00;4.30;;;4.60;99.90;;;;;;4951984;29;20249;-61
2022/01/12 00:40:58;;;;;;;6.65;6.07;;;4.60;99.90;;;;;;4941512;29;20727;-61
2022/01/12 00:43:29;;;;;;;5.95;5.45;;;4.70;99.90;;;;;;4955372;29;20289;-61
2022/01/12 00:45:58;;;;;;;6.72;6.20;;;4.80;99.90;;;;;;4956221;29;20211;-62
2022/01/12 00:48:26;;;;;;;6.70;6.10;;;4.80;99.90;;;;;;4956375;29;20309;-61
2022/01/12 00:50:55;;;;;;;5.97;5.57;;;4.60;99.90;;;;;;4956534;29;20828;-61
2022/01/12 00:53:23;;;;;;;6.00;5.47;;;4.50;99.90;;;;;;4956285;29;20626;-61
2022/01/12 00:55:50;;;;;;;6.30;5.70;;;4.50;99.90;;;;;;4956076;29;20653;-62
2022/01/12 00:58:18;;;;;;;5.43;5.03;;;4.50;99.90;;;;;;4956110;29;20650;-61
2022/01/12 01:00:46;;;;;;;6.35;5.85;;;4.50;99.90;;;;;;4955858;29;20265;-61
2022/01/12 01:03:16;;;;;;;5.60;5.00;;;4.50;99.90;;;;;;4947673;29;20210;-61
2022/01/12 01:05:44;;;;;;;5.93;5.03;;;4.40;99.90;;;;;;4937196;29;20227;-62
2022/01/12 01:08:12;;;;;;;6.65;6.05;;;4.50;99.90;;;;;;4933875;29;20693;-61
2022/01/12 01:10:51;;;;;;;5.90;5.40;;;4.50;99.90;;;;;;4940180;29;20318;-61
2022/01/12 01:13:25;;;;;;;5.97;5.47;;;4.50;99.90;;;;;;4945789;29;20203;-61
2022/01/12 01:16:03;;;;;;;6.32;5.82;;;4.50;99.90;;;;;;4951992;29;20237;-63
2022/01/12 01:26:51;;;;;;;5.70;5.20;;;4.40;99.90;;;;;;4955516;29;20294;-61
2022/01/12 01:29:19;;;;;;;5.97;5.47;;;4.30;99.90;;;;;;4955546;29;20739;-61
2022/01/12 01:31:47;;;;;;;5.88;5.45;;;4.20;99.90;;;;;;4955636;29;20916;-61
2022/01/12 01:34:17;;;;;;;6.15;5.63;;;4.10;99.90;;;;;;4955309;29;20672;-61
2022/01/12 01:36:46;;;;;;;6.45;5.85;;;4.10;99.90;;;;;;4955666;29;20287;-61
2022/01/12 01:39:18;;;;;;;6.40;5.90;;;4.10;99.90;;;;;;4942225;29;20335;-62
2022/01/12 01:41:52;;;;;;;5.55;5.15;;;4.00;99.90;;;;;;4943558;29;20915;-61
2022/01/12 01:55:22;;;;;;;7.60;6.85;;;3.40;99.90;;;;;;4955362;29;20286;-61
2022/01/12 01:57:50;;;;;;;7.80;7.20;;;3.40;99.90;;;;;;4954988;29;20303;-61
2022/01/12 02:00:23;;;;;;;7.85;7.25;;;3.20;99.90;;;;;;4955089;29;20262;-61
2022/01/12 02:02:52;;;;;;;7.63;7.03;;;3.20;99.90;;;;;;4954886;29;20644;-61
2022/01/12 02:05:22;;;;;;;7.30;6.78;;;3.20;99.90;;;;;;4954902;29;20206;-61
2022/01/12 02:07:50;;;;;;;7.63;6.97;;;3.10;99.90;;;;;;4950302;29;20310;-61
2022/01/12 02:10:18;;;;;;;7.53;6.88;;;3.10;99.90;;;;;;4940691;29;20325;-61
2022/01/12 02:12:46;;;;;;;7.80;7.03;;;3.00;99.90;;;;;;4947729;29;20203;-61
2022/01/12 02:15:17;;;;;;;7.55;6.95;;;3.00;99.90;;;;;;4950454;29;20661;-61
2022/01/12 02:18:00;;;;;;;7.80;7.20;;;2.90;99.90;;;;;;4954309;29;20293;-61
2022/01/12 02:37:17;;;;;;;7.32;6.82;;;2.60;99.90;;;;;;4954493;29;20239;-61
2022/01/12 02:39:55;;;;;;;7.50;7.00;;;2.50;99.90;;;;;;4927338;29;20325;-61
2022/01/12 02:42:24;;;;;;;7.45;6.85;;;2.60;99.90;;;;;;4953094;29;20627;-61
2022/01/12 02:50:42;;;;;;;7.30;6.75;;;2.60;99.90;;;;;;4954150;29;20223;-61
2022/01/12 02:55:57;;;;;;;7.47;6.88;;;2.60;99.90;;;;;;4954078;29;20724;-61
2022/01/12 02:58:25;;;;;;;8.73;7.10;;;2.60;99.90;;;;;;4953954;29;20637;-61
2022/01/12 03:01:19;;;;;;;7.70;7.10;;;2.60;99.90;;;;;;4953942;29;20321;-61
2022/01/12 03:03:50;;;;;;;8.27;7.57;;;2.60;99.90;;;;;;4941320;29;20286;-61
2022/01/12 03:06:21;;;;;;;7.93;7.22;;;2.60;99.90;;;;;;4953945;29;20676;-61
2022/01/12 03:08:50;;;;;;;7.38;6.78;;;2.60;99.90;;;;;;4947390;29;20238;-61
2022/01/12 03:11:20;;;;;;;7.63;6.93;;;2.60;99.90;;;;;;4938043;29;20246;-61
2022/01/12 03:13:49;;;;;;;7.80;7.20;;;2.60;99.90;;;;;;4950542;29;20215;-61
2022/01/12 03:16:19;;;;;;;7.18;6.68;;;2.50;99.90;;;;;;4943839;29;20664;-61
2022/01/12 03:18:49;;;;;;;7.78;7.05;;;2.50;99.90;;;;;;4949138;29;20648;-62
2022/01/12 03:21:19;;;;;;;8.70;7.93;;;2.50;99.90;;;;;;4953589;29;20219;-61
2022/01/12 03:23:48;;;;;;;6.95;6.45;;;2.50;99.90;;;;;;4953518;29;20294;-62
2022/01/12 03:26:16;;;;;;;7.70;7.03;;;2.40;99.90;;;;;;4953550;29;20262;-61
2022/01/12 03:28:52;;;;;;;8.30;7.60;;;2.30;99.90;;;;;;4953207;29;20238;-61
2022/01/12 03:31:22;;;;;;;7.88;7.18;;;2.20;99.90;;;;;;4953520;29;20230;-61
2022/01/12 03:33:58;;;;;;;7.45;6.85;;;2.10;99.90;;;;;;4953393;29;20289;-63
2022/01/12 03:36:42;;;;;;;7.95;7.25;;;2.00;99.90;;;;;;4953754;29;20305;-61
2022/01/12 03:39:12;;;;;;;8.70;7.93;;;1.90;99.90;;;;;;4936440;29;21505;-61
2022/01/12 03:41:41;;;;;;;7.55;6.95;;;1.90;99.90;;;;;;4949845;29;20791;-61
2022/01/12 03:44:12;;;;;;;7.15;6.65;;;1.80;99.90;;;;;;4952876;28;20294;-61
2022/01/12 03:46:45;;;;;;;8.43;7.72;;;1.80;99.90;;;;;;4953209;29;20254;-62
2022/01/12 03:49:13;;;;;;;8.00;7.40;;;1.80;99.90;;;;;;4953178;29;20716;-61
2022/01/12 03:51:41;;;;;;;7.53;6.95;;;1.80;99.90;;;;;;4953083;29;20227;-61
2022/01/12 03:54:09;;;;;;;7.22;6.65;;;1.80;99.90;;;;;;4953149;29;20242;-61
2022/01/12 03:56:37;;;;;;;7.35;6.75;;;1.90;99.90;;;;;;4953187;29;20226;-62
2022/01/12 03:59:06;;;;;;;7.90;7.30;;;1.90;99.90;;;;;;4952840;29;20682;-61
2022/01/12 04:01:35;;;;;;;7.80;7.20;;;1.80;99.90;;;;;;4952998;29;20309;-62
2022/01/12 04:04:11;;;;;;;7.40;6.80;;;1.80;99.90;;;;;;4952840;29;20681;-61
2022/01/12 04:09:42;;;;;;;7.95;7.25;;;1.70;99.90;;;;;;4933170;29;20226;-61
2022/01/12 04:12:11;;;;;;;7.55;7.00;;;1.70;99.90;;;;;;4943147;29;20208;-60
2022/01/12 04:14:39;;;;;;;9.30;8.50;;;1.70;99.90;;;;;;4951079;29;20294;-61
2022/01/12 04:17:08;;;;;;;8.63;7.93;;;1.70;99.90;;;;;;4953034;29;20635;-61
2022/01/12 04:19:37;;;;;;;7.60;7.10;;;1.70;99.90;;;;;;4952914;29;20317;-61
2022/01/12 04:23:16;;;;;;;7.30;6.80;;;1.70;99.90;;;;;;4942637;29;20706;-61
2022/01/12 04:24:55;;;;;;;8.05;7.45;;;1.70;99.90;;;;;;4952704;29;20258;-61
2022/01/12 04:27:23;;;;;;;8.05;7.30;;;1.80;99.90;;;;;;4940368;29;20358;-61
2022/01/12 04:29:51;;;;;;;8.18;7.47;;;1.80;99.90;;;;;;4939956;29;20282;-61
2022/01/12 04:32:23;;;;;;;7.18;6.68;;;1.90;99.90;;;;;;4946471;29;20262;-61
2022/01/12 04:34:52;;;;;;;8.50;7.70;;;1.80;99.90;;;;;;4941660;29;20230;-61
2022/01/12 04:37:19;;;;;;;7.65;7.05;;;1.80;99.90;;;;;;4952194;29;20207;-61
2022/01/12 04:39:47;;;;;;;7.90;7.30;;;1.90;99.90;;;;;;4956039;23;20259;-74
2022/01/12 04:42:15;;;;;;;7.25;6.75;;;1.90;99.90;;;;;;4936793;29;20247;-74
2022/01/12 04:44:45;;;;;;;6.90;6.40;;;1.90;99.90;;;;;;4952587;29;20649;-75
2022/01/12 04:47:27;;;;;;;7.78;7.18;;;2.00;99.90;;;;;;4952739;29;20212;-74
2022/01/12 04:49:57;;;;;;;7.38;6.78;;;2.00;99.90;;;;;;4952762;29;20262;-75
2022/01/12 04:52:25;;;;;;;7.32;6.82;;;2.10;99.90;;;;;;4952630;29;20258;-75
2022/01/12 04:54:53;;;;;;;7.57;6.88;;;2.20;99.90;;;;;;4952872;29;20249;-75
2022/01/12 04:57:21;;;;;;;6.97;6.30;;;2.20;99.90;;;;;;4954725;28;20239;-73
2022/01/12 05:00:03;;;;;;;6.70;6.20;;;2.20;99.90;;;;;;4956328;29;20294;-75
2022/01/12 05:08:16;;;;;;;6.25;5.75;;;2.20;99.90;;;;;;4947060;29;20225;-74
2022/01/12 05:13:31;;;;;;;6.10;5.70;;;2.10;99.90;;;;;;4955596;29;20282;-76
2022/01/12 05:16:00;;;;;;;6.95;6.35;;;2.00;99.90;;;;;;4956051;29;20258;-74
2022/01/12 05:18:28;;;;;;;6.93;6.32;;;2.10;99.90;;;;;;4955879;29;20207;-74
2022/01/12 05:20:58;;;;;;;6.80;6.30;;;2.10;99.90;;;;;;4950492;29;20323;-72
2022/01/12 05:23:26;;;;;;;6.70;6.07;;;2.10;99.90;;;;;;4938359;29;20254;-72
2022/01/12 05:25:55;;;;;;;6.20;5.75;;;2.10;99.90;;;;;;4955918;29;20642;-72
2022/01/12 05:28:24;;;;;;;7.28;6.78;;;2.10;99.90;;;;;;4945899;29;20235;-72
2022/01/12 05:30:52;;;;;;;6.65;6.20;;;2.10;99.90;;;;;;4952170;29;20262;-72
2022/01/12 05:33:22;;;;;;;5.95;5.53;;;2.20;99.90;;;;;;4951081;29;20270;-72
2022/01/12 05:35:50;;;;;;;8.25;6.03;;;2.20;99.90;;;;;;4955653;29;20230;-72
2022/01/12 05:38:20;;;;;;;6.65;6.15;;;2.20;99.90;;;;;;4945295;29;20253;-72
2022/01/12 05:40:50;;;;;;;6.35;5.85;;;2.20;99.90;;;;;;4935266;29;20267;-72
2022/01/12 05:43:23;;;;;;;6.05;5.55;;;2.20;99.90;;;;;;4941806;29;20321;-72
2022/01/12 05:45:53;;;;;;;6.65;6.05;;;2.10;99.90;;;;;;4955657;29;20211;-73
2022/01/12 05:51:06;;;;;;;6.53;6.10;;;2.00;99.90;;;;;;4951398;29;20243;-72
2022/01/12 05:53:35;;;;;;;7.45;6.85;;;1.90;99.90;;;;;;4955084;29;20199;-72
2022/01/12 05:56:03;;;;;;;6.70;6.15;;;2.00;99.90;;;;;;4955438;29;20254;-71
2022/01/12 05:58:31;;;;;;;7.25;6.65;;;2.00;99.90;;;;;;4953672;29;20279;-75
2022/01/12 06:00:59;;;;;;;7.05;6.50;;;2.00;99.90;;;;;;4955489;29;20227;-74
2022/01/12 06:03:27;;;;;;;7.40;6.88;;;2.10;99.90;;;;;;4957717;29;20230;-74
2022/01/12 06:05:55;;;;;;;6.90;6.40;;;2.10;99.90;;;;;;4958459;29;20262;-75
2022/01/12 06:08:23;;;;;;;7.10;6.50;;;2.20;99.90;;;;;;4942930;28;20633;-74
2022/01/12 06:10:52;;;;;;;6.93;6.43;;;2.20;99.90;;;;;;4945158;29;20712;-75
2022/01/12 06:13:20;;;;;;;6.50;6.00;;;2.20;99.90;;;;;;4954626;29;20242;-75
2022/01/12 06:15:48;;;;;;;6.93;6.43;;;2.20;99.90;;;;;;4950712;29;20254;-75
2022/01/12 06:18:16;;;;;;;6.28;5.80;;;2.30;99.90;;;;;;4937424;29;20222;-72
2022/01/12 06:20:44;;;;;;;6.53;6.10;;;2.30;99.90;;;;;;4934333;29;20261;-72
2022/01/12 06:23:11;;;;;;;7.20;6.65;;;2.30;99.90;;;;;;4938109;29;20247;-72
2022/01/12 06:25:39;;;;;;;6.55;5.95;;;2.30;99.90;;;;;;4937263;29;20268;-72
2022/01/12 06:28:24;;;;;;;5.72;5.32;;;2.40;99.90;;;;;;4948701;29;20238;-72
2022/01/12 06:31:11;;;;;;;5.40;5.00;;;2.40;99.90;;;;;;4943939;29;20229;-72
2022/01/12 06:33:40;;;;;;;5.60;5.20;;;2.40;99.90;;;;;;4928586;29;20211;-73
2022/01/12 06:36:09;;;;;;;5.82;5.43;;;2.40;99.90;;;;;;4944251;29;20238;-73
2022/01/12 06:38:37;;;;;;;6.43;5.80;;;2.40;99.90;;;;;;4931785;29;20720;-72
2022/01/12 06:41:05;;;;;;;6.00;5.45;;;2.20;99.90;;;;;;4932954;29;20326;-72
2022/01/12 06:43:35;;;;;;;6.43;5.93;;;2.30;99.90;;;;;;4945516;29;20251;-72
2022/01/12 06:46:04;;;;;;;4.25;3.95;;;2.40;99.90;;;;;;4949138;29;20274;-72
2022/01/12 06:48:33;;;;;;;5.75;5.15;;;2.40;99.90;;;;;;4934376;29;20895;-72
2022/01/12 06:51:01;;;;;;;4.40;4.10;;;2.40;99.90;;;;;;4936242;29;20749;-74
2022/01/12 06:53:29;;;;;;;5.30;4.90;;;2.40;99.90;;;;;;4947308;29;20234;-73
2022/01/12 06:55:57;;;;;;;5.00;4.60;;;2.40;99.90;;;;;;4949690;29;20207;-75
2022/01/12 06:58:26;;;;;;;5.57;5.07;;;2.40;99.90;;;;;;4945047;29;20321;-73
2022/01/12 07:00:55;;;;;;;4.95;4.65;;;2.40;99.90;;;;;;4946218;29;20309;-72
2022/01/12 07:03:23;;;;;;;5.32;4.93;;;2.40;99.90;;;;;;4947615;29;20247;-72
2022/01/12 07:05:51;;;;;;;5.13;4.72;;;2.30;99.90;;;;;;4928063;29;20658;-72
2022/01/12 07:08:18;;;;;;;5.05;4.65;;;2.30;99.90;;;;;;4943461;29;20204;-73
2022/01/12 07:10:46;;;;;;;5.50;5.10;;;2.20;99.90;;;;;;4942207;29;20232;-72
2022/01/12 07:13:14;;;;;;;5.38;5.07;;;2.20;99.90;;;;;;4950339;29;20302;-73
2022/01/12 07:15:44;;;;;;;5.35;4.95;;;2.10;99.90;;;;;;4936541;29;20299;-72
2022/01/12 07:18:14;;;;;;;5.07;4.68;;;2.00;99.90;;;;;;4940206;29;20306;-73
2022/01/12 07:20:42;;;;;;;5.43;5.03;;;1.80;99.90;;;;;;4941367;29;20338;-73
2022/01/12 07:23:11;;;;;;;5.30;4.80;;;1.70;99.90;;;;;;4946838;29;20310;-73
2022/01/12 07:25:39;;;;;;;5.22;4.82;;;1.70;99.90;;;;;;4947094;29;20258;-73
2022/01/12 07:28:07;;;;;;;6.22;5.03;;;1.70;99.90;;;;;;4958278;29;20243;-73
2022/01/12 07:30:35;;;;;;;6.07;5.47;;;1.70;99.90;;;;;;4937942;29;20662;-73
2022/01/12 07:33:03;;;;;;;5.63;5.22;;;1.70;99.90;;;;;;4954696;29;20209;-73
2022/01/12 07:35:33;;;;;;;6.20;5.70;;;1.70;99.90;;;;;;4953216;29;20282;-73
2022/01/12 07:38:01;;;;;;;5.18;4.78;;;1.80;99.90;;;;;;4946720;29;20197;-73
2022/01/12 07:40:29;;;;;;;5.85;5.35;;;1.80;99.90;;;;;;4932425;29;20593;-73
2022/01/12 07:42:58;;;;;;;6.07;5.68;;;1.90;99.90;;;;;;4954118;29;20727;-73
2022/01/12 07:45:26;;;;;;;5.85;5.45;;;1.90;99.90;;;;;;4954175;29;20263;-72
2022/01/12 07:47:53;;;;;;;5.65;5.25;;;2.00;99.90;;;;;;4954630;29;20665;-73
2022/01/12 07:50:21;;;;;;;5.53;5.13;;;2.00;99.90;;;;;;4954427;29;20263;-73
2022/01/12 07:52:53;;;;;;;5.32;4.93;;;2.10;99.90;;;;;;4953922;29;20298;-73
2022/01/12 07:55:22;;;;;;;5.10;4.75;;;2.10;99.90;;;;;;4954610;29;20231;-72
2022/01/12 07:57:51;;;;;;;6.25;5.82;;;2.20;99.90;;;;;;4954126;29;20250;-73
2022/01/12 08:00:20;;;;;;;4.60;4.30;;;2.30;99.90;;;;;;4953932;29;20646;-73
2022/01/12 08:02:50;;;;;;;5.25;4.85;;;2.50;99.90;;;;;;4953808;29;20673;-73
2022/01/12 08:05:19;;;;;;;5.70;5.20;;;2.80;99.90;;;;;;4954153;29;20237;-74
2022/01/12 08:07:48;;;;;;;5.10;4.60;;;3.00;99.90;;;;;;4949844;29;20668;-73
2022/01/12 08:10:18;;;;;;;5.43;5.03;;;3.10;99.90;;;;;;4941292;29;20224;-73
2022/01/12 08:12:45;;;;;;;6.38;5.88;;;3.20;99.90;;;;;;4948813;29;20250;-72
2022/01/12 08:15:14;;;;;;;5.38;4.95;;;3.10;99.90;;;;;;4953674;29;20203;-73
2022/01/12 08:17:42;;;;;;;5.63;5.22;;;3.00;99.90;;;;;;4954515;29;20544;-72
2022/01/12 08:20:14;;;;;;;7.20;6.60;;;3.10;99.90;;;;;;4954291;29;20241;-73
2022/01/12 08:22:42;;;;;;;6.78;6.28;;;3.00;99.90;;;;;;4954153;29;20250;-73
2022/01/12 08:25:10;;;;;;;5.85;5.45;;;3.00;99.90;;;;;;4953711;29;20297;-73
2022/01/12 08:27:40;;;;;;;5.95;5.43;;;2.90;99.90;;;;;;4954095;29;20227;-73
2022/01/12 08:30:16;;;;;;;6.25;5.75;;;2.80;99.90;;;;;;4953764;28;20318;-73
2022/01/12 08:32:44;;;;;;;6.07;5.57;;;2.90;99.90;;;;;;4956769;29;20194;-72
2022/01/12 08:35:13;;;;;;;5.68;5.28;;;2.90;99.90;;;;;;4957122;29;20282;-73
2022/01/12 08:37:41;;;;;;;6.55;5.95;;;2.80;99.90;;;;;;4955514;29;20235;-72
2022/01/12 08:40:10;;;;;;;4.78;4.38;;;2.80;99.90;;;;;;4938398;29;20699;-72
2022/01/12 08:42:40;;;;;;;5.15;4.68;;;2.80;99.90;;;;;;4957303;29;20294;-73
2022/01/12 08:45:09;;;;;;;5.45;4.45;;;3.10;99.90;;;;;;4957436;29;20219;-72
2022/01/12 08:47:37;;;;;;;4.47;4.07;;;3.50;99.90;;;;;;4956995;29;20676;-72
2022/01/12 08:50:06;;;;;;;4.63;4.10;;;4.00;99.90;;;;;;4957012;29;20700;-72
2022/01/12 08:52:34;;;;;;;6.68;3.80;;;4.60;99.90;;;;;;4956937;29;20211;-72
2022/01/12 08:55:02;;;;;;;3.63;3.42;;;5.00;99.90;;;;;;4957135;29;20254;-73
2022/01/12 08:57:30;;;;;;;3.90;3.60;;;5.60;99.90;;;;;;4957479;29;20218;-73
2022/01/12 09:00:00;;;;;;;3.70;3.50;;;6.20;99.90;;;;;;4956926;29;20255;-74
2022/01/12 09:02:29;;;;;;;5.13;4.65;;;6.80;99.90;;;;;;4956778;29;20307;-73
2022/01/12 09:04:57;;;;;;;4.65;4.25;;;7.20;99.90;;;;;;4956401;29;20227;-73
2022/01/12 09:07:24;;;;;;;4.50;4.07;;;7.70;99.90;;;;;;4955375;29;20207;-74
2022/01/12 09:09:52;;;;;;;4.15;3.85;;;8.00;99.90;;;;;;4938365;29;20609;-73
2022/01/12 09:12:25;;;;;;;4.78;4.38;;;8.20;99.90;;;;;;4950382;29;20250;-74
2022/01/12 09:14:53;;;;;;;4.15;3.85;;;8.20;99.90;;;;;;4955789;29;20238;-72
2022/01/12 09:17:23;;;;;;;4.55;4.15;;;7.90;99.90;;;;;;4956206;29;20207;-72
2022/01/12 09:19:53;;;;;;;7.68;6.85;;;7.70;99.90;;;;;;4956666;29;20250;-73
2022/01/12 09:22:21;;;;;;;8.50;7.80;;;7.40;99.90;;;;;;4956288;29;20294;-73
2022/01/12 09:24:50;;;;;;;5.97;5.57;;;7.00;99.90;;;;;;4955709;29;20310;-73
2022/01/12 09:27:19;;;;;;;5.55;4.80;;;6.40;99.90;;;;;;4956001;29;20203;-73
2022/01/12 09:29:47;;;;;;;5.20;4.80;;;6.20;99.90;;;;;;4956205;29;20227;-73
2022/01/12 09:32:16;;;;;;;5.30;4.90;;;6.30;99.90;;;;;;4955642;29;20215;-73
2022/01/12 09:34:45;;;;;;;5.78;5.20;;;6.50;99.90;;;;;;4955536;29;20624;-73
2022/01/12 09:37:13;;;;;;;6.22;5.72;;;6.90;99.90;;;;;;4956626;29;20204;-74
2022/01/12 09:39:41;;;;;;;5.50;5.10;;;7.20;99.90;;;;;;4944967;29;20227;-73
2022/01/12 09:42:10;;;;;;;6.30;5.80;;;7.10;99.90;;;;;;4938014;28;20246;-73
2022/01/12 09:44:43;;;;;;;7.05;6.35;;;6.90;99.90;;;;;;4943819;29;20207;-73
2022/01/12 09:47:12;;;;;;;7.00;6.40;;;6.80;99.90;;;;;;4946325;29;20215;-74
2022/01/12 09:49:42;;;;;;;6.65;5.97;;;6.80;99.90;;;;;;4956692;29;20351;-74
2022/01/12 09:52:12;;;;;;;6.57;5.97;;;7.10;99.90;;;;;;4956411;29;20215;-74
2022/01/12 09:54:40;;;;;;;7.80;7.20;;;7.30;99.90;;;;;;4956854;29;20234;-74
2022/01/12 09:57:09;;;;;;;6.22;5.72;;;7.30;99.90;;;;;;4939439;29;20349;-74
2022/01/12 09:59:36;;;;;;;6.22;5.70;;;7.30;99.90;;;;;;4956427;29;20755;-74
2022/01/12 10:02:05;;;;;;;6.40;5.80;;;7.30;99.90;;;;;;4956943;29;20218;-73
2022/01/12 10:04:33;;;;;;;7.00;6.40;;;7.30;99.90;;;;;;4956291;29;20203;-74
2022/01/12 10:07:02;;;;;;;6.60;5.90;;;7.50;99.90;;;;;;4955994;29;20199;-74
2022/01/12 10:09:37;;;;;;;6.50;5.90;;;7.50;99.90;;;;;;4931780;29;20208;-73
2022/01/12 10:12:11;;;;;;;7.15;6.55;;;7.50;99.90;;;;;;4949917;29;20364;-73
2022/01/12 10:14:46;;;;;;;7.95;6.18;;;7.70;99.90;;;;;;4956273;29;20741;-74
2022/01/12 10:17:15;;;;;;;7.90;7.15;;;7.90;99.90;;;;;;4938855;29;20240;-73
2022/01/12 10:19:43;;;;;;;6.88;6.28;;;8.20;99.90;;;;;;4955891;29;20661;-74
2022/01/12 10:22:14;;;;;;;6.60;5.95;;;8.30;99.90;;;;;;4956169;29;20207;-74
2022/01/12 10:24:46;;;;;;;6.72;6.13;;;8.50;99.90;;;;;;4939069;29;20199;-73
2022/01/12 10:27:17;;;;;;;7.72;7.03;;;8.50;99.90;;;;;;4956076;29;20514;-73
2022/01/12 10:29:46;;;;;;;7.63;6.93;;;8.80;99.90;;;;;;4955613;29;20223;-75
2022/01/12 10:32:18;;;;;;;7.43;6.72;;;8.60;99.90;;;;;;4955638;29;20203;-74
2022/01/12 10:34:48;;;;;;;7.30;6.53;;;8.40;99.90;;;;;;4955860;29;20211;-73
2022/01/12 10:37:18;;;;;;;6.85;6.20;;;8.30;99.90;;;;;;4956645;29;20230;-74
2022/01/12 10:39:49;;;;;;;6.78;6.18;;;8.10;99.90;;;;;;4945804;29;21385;-75
2022/01/12 10:42:20;;;;;;;9.85;6.50;;;8.10;99.90;;;;;;4942157;29;20199;-75
2022/01/12 10:44:50;;;;;;;7.90;6.85;;;7.90;99.90;;;;;;4955880;29;20215;-75
2022/01/12 10:47:21;;;;;;;8.27;7.47;;;8.00;99.90;;;;;;4954798;29;20290;-74
2022/01/12 10:49:59;;;;;;;7.97;7.18;;;8.00;99.90;;;;;;4954682;29;20219;-75
2022/01/12 10:52:30;;;;;;;7.10;6.40;;;8.10;99.90;;;;;;4954481;29;20622;-75
2022/01/12 10:55:02;;;;;;;8.23;7.22;;;7.90;99.90;;;;;;4953913;28;20211;-77
2022/01/12 10:57:32;;;;;;;7.95;7.30;;;7.90;99.90;;;;;;4954646;29;20207;-76
2022/01/12 11:00:06;;;;;;;7.30;6.60;;;7.70;99.90;;;;;;4954184;29;20716;-74
2022/01/12 11:02:36;;;;;;;7.80;7.03;;;7.50;99.90;;;;;;4954084;29;20210;-75
2022/01/12 11:05:07;;;;;;;8.43;7.63;;;7.10;99.90;;;;;;4954326;29;20293;-74
2022/01/12 11:07:35;;;;;;;7.78;6.72;;;7.10;99.90;;;;;;4953304;29;20235;-75
2022/01/12 11:10:07;;;;;;;8.77;7.90;;;7.20;99.90;;;;;;4933373;29;20272;-75
2022/01/12 11:12:36;;;;;;;6.68;6.07;;;7.40;99.90;;;;;;4954045;29;20211;-75
2022/01/12 11:15:06;;;;;;;7.78;7.00;;;7.60;99.90;;;;;;4954285;29;20290;-75
2022/01/12 11:17:35;;;;;;;7.10;6.50;;;7.70;99.90;;;;;;4937109;29;20250;-75
2022/01/12 11:20:11;;;;;;;8.20;7.38;;;7.70;99.90;;;;;;4953945;29;20580;-74
2022/01/12 11:23:01;;;;;;;6.18;5.68;;;7.30;99.90;;;;;;4953734;29;20664;-75
2022/01/12 11:25:33;;;;;;;6.22;5.72;;;7.40;99.90;;;;;;4954062;29;20242;-74
2022/01/12 11:28:08;;;;;;;7.20;6.50;;;7.50;99.90;;;;;;4942492;29;20286;-74
2022/01/12 11:30:38;;;;;;;6.00;5.05;;;7.50;99.90;;;;;;4953770;29;20227;-76
2022/01/12 11:33:07;;;;;;;13.43;9.40;;;7.50;99.90;;;;;;4953846;29;20643;-74
2022/01/12 11:35:39;;;;;;;10.75;8.40;;;7.20;99.90;;;;;;4954003;29;20234;-74
2022/01/12 11:38:19;;;;;;;7.28;6.57;;;6.70;99.90;;;;;;4949779;29;20302;-75
2022/01/12 11:40:50;;;;;;;9.93;9.00;;;6.60;99.90;;;;;;4931731;29;20241;-76
2022/01/12 11:43:27;;;;;;;10.05;8.80;;;6.50;99.90;;;;;;4942665;29;20286;-74
2022/01/12 11:46:05;;;;;;;8.13;7.43;;;6.50;99.90;;;;;;4926740;29;20322;-72
2022/01/12 11:48:35;;;;;;;8.70;7.88;;;6.60;99.90;;;;;;4942152;29;20731;-74
2022/01/12 11:51:03;;;;;;;9.02;8.32;;;6.90;99.90;;;;;;4953464;29;20258;-74
2022/01/12 11:53:35;;;;;;;9.38;8.48;;;7.60;99.90;;;;;;4953525;29;20660;-74
2022/01/12 11:56:15;;;;;;;7.70;7.00;;;8.00;99.90;;;;;;4953440;29;20205;-75
2022/01/12 11:58:58;;;;;;;9.02;8.23;;;8.80;99.90;;;;;;4953462;29;20258;-75
2022/01/12 12:01:38;;;;;;;6.75;6.15;;;9.70;99.90;;;;;;4953632;29;20229;-75
2022/01/12 12:04:08;;;;;;;7.82;7.13;;;10.30;99.90;;;;;;4941715;29;20760;-75
2022/01/12 12:06:37;;;;;;;7.03;6.43;;;10.40;99.90;;;;;;4953478;28;20239;-75
2022/01/12 12:09:09;;;;;;;6.38;5.88;;;10.30;99.90;;;;;;4938832;29;20600;-75
2022/01/12 12:11:39;;;;;;;7.85;7.13;;;11.00;99.90;;;;;;4952493;29;20221;-73
2022/01/12 12:14:09;;;;;;;7.05;6.35;;;11.50;99.90;;;;;;4953367;29;20691;-74
2022/01/12 12:16:37;;;;;;;8.38;7.55;;;11.70;99.90;;;;;;4953635;29;20298;-75
2022/01/12 12:19:06;;;;;;;6.10;5.55;;;11.60;99.60;;;;;;4953565;29;20245;-75
2022/01/12 12:21:35;;;;;;;7.15;6.55;;;11.50;99.80;;;;;;4953465;29;20649;-75
2022/01/12 12:24:10;;;;;;;6.20;5.63;;;11.50;99.70;;;;;;4952936;29;20579;-75
2022/01/12 12:26:46;;;;;;;6.35;5.85;;;10.80;99.90;;;;;;4952962;29;20222;-75
2022/01/12 12:29:18;;;;;;;8.75;7.95;;;10.10;99.90;;;;;;4953246;29;20238;-74
2022/01/12 12:31:48;;;;;;;9.23;7.38;;;9.40;99.90;;;;;;4953237;29;20707;-74
2022/01/12 12:34:23;;;;;;;5.80;5.20;;;9.00;99.90;;;;;;4953114;29;20208;-74
2022/01/12 12:36:57;;;;;;;8.60;6.88;;;8.20;99.90;;;;;;4940754;29;20226;-76
2022/01/12 12:39:28;;;;;;;8.77;7.97;;;7.70;99.90;;;;;;4938991;29;20264;-71
2022/01/12 12:41:57;;;;;;;7.78;7.07;;;7.30;99.90;;;;;;4923404;29;20771;-73
2022/01/12 12:44:27;;;;;;;7.07;6.47;;;7.00;99.90;;;;;;4933928;29;20203;-73
2022/01/12 12:47:07;;;;;;;11.85;6.07;;;7.00;99.90;;;;;;4933536;29;20272;-73
2022/01/12 12:49:49;;;;;;;6.03;5.53;;;7.00;99.90;;;;;;4933707;29;20311;-73
2022/01/12 12:52:25;;;;;;;13.10;7.93;;;6.90;99.90;;;;;;4933643;29;20263;-72
2022/01/12 12:54:54;;;;;;;8.13;7.38;;;6.90;99.90;;;;;;4921725;29;20677;-75
2022/01/12 12:57:24;;;;;;;7.65;6.95;;;6.90;99.90;;;;;;4921736;29;20228;-73
2022/01/12 13:00:04;;;;;;;7.53;6.80;;;7.00;99.90;;;;;;4933348;29;20335;-73
2022/01/12 13:02:36;;;;;;;8.30;7.60;;;7.00;99.90;;;;;;4933581;29;20235;-73
2022/01/12 13:05:05;;;;;;;7.40;6.70;;;6.90;99.90;;;;;;4933558;29;20223;-73
2022/01/12 13:07:37;;;;;;;7.68;6.97;;;6.90;99.90;;;;;;4931314;29;20263;-72
2022/01/12 13:10:06;;;;;;;7.90;7.20;;;7.10;99.90;;;;;;4927979;29;20263;-72
2022/01/12 13:12:40;;;;;;;8.50;7.25;;;7.00;99.90;;;;;;4928092;29;20251;-74
2022/01/12 13:15:11;;;;;;;13.43;8.63;;;7.00;99.90;;;;;;4933675;29;20254;-74
2022/01/12 13:17:40;;;;;;;13.63;9.45;;;7.10;99.90;;;;;;4934519;29;20279;-73
2022/01/12 13:23:07;;;;;;;10.90;6.72;;;7.10;99.90;;;;;;4936691;29;20279;-74
2022/01/12 13:25:35;;;;;;;8.38;7.57;;;7.10;99.90;;;;;;4936661;29;20267;-74
2022/01/12 13:28:05;;;;;;;8.32;7.53;;;7.00;99.90;;;;;;4936851;29;20259;-74
2022/01/12 13:30:35;;;;;;;7.60;6.85;;;7.00;99.90;;;;;;4936908;29;20228;-74
2022/01/12 13:33:04;;;;;;;7.22;6.60;;;7.00;99.90;;;;;;4936604;29;20259;-76
2022/01/12 13:35:35;;;;;;;9.38;8.05;;;6.80;99.90;;;;;;4936282;29;20288;-74
2022/01/12 13:38:06;;;;;;;9.00;8.20;;;6.70;99.90;;;;;;4928982;29;20209;-74
2022/01/12 13:40:43;;;;;;;9.30;8.40;;;6.80;99.90;;;;;;4932442;29;20239;-74
2022/01/12 13:43:13;;;;;;;8.93;8.02;;;6.90;99.90;;;;;;4955394;29;20294;-73
2022/01/12 13:45:43;;;;;;;9.35;8.50;;;7.00;99.90;;;;;;4955804;29;20657;-74
2022/01/12 13:48:17;;;;;;;13.30;9.43;;;7.10;99.90;;;;;;4944073;29;20261;-75
2022/01/12 13:50:46;;;;;;;9.10;8.27;;;7.20;99.90;;;;;;4956188;29;20314;-75
2022/01/12 13:53:14;;;;;;;10.45;9.38;;;7.00;99.90;;;;;;4955252;29;20215;-76
2022/01/12 13:55:51;;;;;;;10.27;9.27;;;6.90;99.90;;;;;;4955044;29;20268;-75
2022/01/12 13:58:25;;;;;;;10.70;9.60;;;7.00;99.90;;;;;;4955463;29;20230;-77
2022/01/12 14:00:59;;;;;;;10.52;9.52;;;6.90;99.90;;;;;;4955249;29;20255;-73
2022/01/12 14:03:27;;;;;;;8.88;8.07;;;7.00;99.90;;;;;;4955282;29;20297;-75
2022/01/12 14:05:59;;;;;;;10.38;9.30;;;7.00;99.90;;;;;;4955144;29;20301;-76
2022/01/12 14:08:40;;;;;;;9.65;8.75;;;7.00;99.90;;;;;;4950602;29;20251;-74
2022/01/12 14:11:09;;;;;;;10.30;9.30;;;7.00;99.90;;;;;;4934625;29;20215;-75
2022/01/12 14:13:41;;;;;;;10.55;8.82;;;7.00;99.90;;;;;;4955176;29;20246;-75
2022/01/12 14:16:10;;;;;;;10.70;9.70;;;7.00;99.90;;;;;;4954995;29;20747;-74
2022/01/12 14:18:40;;;;;;;9.90;8.95;;;7.00;99.90;;;;;;4955488;29;20254;-75